createdAt,value
2023-04-01T00:03:35.676Z,7.32
2023-04-01T00:08:30.772Z,7.93
2023-04-01T00:13:24.512Z,7.65
2023-04-01T00:18:19.457Z,5.47
2023-04-01T00:23:14.230Z,7.40
2023-04-01T00:28:07.795Z,9.75
2023-04-01T00:33:01.752Z,15.05
2023-04-01T00:37:55.097Z,12.13
2023-04-01T00:42:48.213Z,10.13
2023-04-01T00:47:40.954Z,13.32
2023-04-01T00:52:34.390Z,9.75
2023-04-01T00:57:32.400Z,9.95
2023-04-01T01:02:26.831Z,10.75
2023-04-01T01:07:40.813Z,8.18
2023-04-01T01:12:47.064Z,11.07
2023-04-01T01:18:03.806Z,11.43
2023-04-01T01:23:34.025Z,9.27
2023-04-01T01:28:36.018Z,10.88
2023-04-01T01:33:35.111Z,12.13
2023-04-01T01:38:31.174Z,12.27
2023-04-01T01:43:38.647Z,18.83
2023-04-01T01:48:34.474Z,19.92
2023-04-01T01:53:26.834Z,15.63
2023-04-01T01:58:22.788Z,12.80
2023-04-01T02:03:16.727Z,12.77
2023-04-01T02:08:14.097Z,15.13
2023-04-01T02:13:11.845Z,17.55
2023-04-01T02:18:05.879Z,15.68
2023-04-01T02:23:01.190Z,17.63
2023-04-01T02:27:55.375Z,18.02
2023-04-01T02:32:49.050Z,22.85
2023-04-01T02:37:44.905Z,20.38
2023-04-01T02:42:37.904Z,19.98
2023-04-01T02:47:31.210Z,20.95
2023-04-01T02:52:25.332Z,25.38
2023-04-01T02:57:18.517Z,21.92
2023-04-01T03:02:12.230Z,25.55
2023-04-01T03:07:05.466Z,31.83
2023-04-01T03:11:58.794Z,25.40
2023-04-01T03:16:53.454Z,27.27
2023-04-01T03:21:51.171Z,32.42
2023-04-01T03:26:44.428Z,30.48
2023-04-01T03:31:37.799Z,25.70
2023-04-01T03:36:31.288Z,32.20
2023-04-01T03:41:24.181Z,20.95
2023-04-01T03:46:22.148Z,17.85
2023-04-01T03:51:16.016Z,15.75
2023-04-01T03:56:09.668Z,20.70
2023-04-01T04:01:03.119Z,21.63
2023-04-01T04:05:57.996Z,22.55
2023-04-01T04:10:57.624Z,19.33
2023-04-01T04:15:51.498Z,23.38
2023-04-01T04:20:52.285Z,18.17
2023-04-01T04:25:59.826Z,16.13
2023-04-01T04:30:54.924Z,15.50
2023-04-01T04:35:48.133Z,20.42
2023-04-01T04:40:44.102Z,13.48
2023-04-01T04:45:39.468Z,16.05
2023-04-01T04:50:32.544Z,14.75
2023-04-01T04:55:25.836Z,13.73
2023-04-01T05:00:38.759Z,14.07
2023-04-01T05:05:36.817Z,13.82
2023-04-01T05:10:33.665Z,14.60
2023-04-01T05:15:26.512Z,13.30
2023-04-01T05:20:19.672Z,17.48
2023-04-01T05:25:13.142Z,15.10
2023-04-01T05:30:08.111Z,16.35
2023-04-01T05:35:12.757Z,11.90
2023-04-01T05:40:09.457Z,14.13
2023-04-01T05:45:03.553Z,13.73
2023-04-01T05:50:15.727Z,18.83
2023-04-01T05:55:11.172Z,20.90
2023-04-01T06:00:05.386Z,11.98
2023-04-01T06:05:26.868Z,16.15
2023-04-01T06:10:21.615Z,14.07
2023-04-01T06:15:32.354Z,15.48
2023-04-01T06:20:44.799Z,16.88
2023-04-01T06:25:58.166Z,18.33
2023-04-01T06:31:21.946Z,16.23
2023-04-01T06:41:18.134Z,24.02
2023-04-01T06:46:33.340Z,30.30
2023-04-01T06:52:21.769Z,34.97
2023-04-01T06:57:48.867Z,31.15
2023-04-01T07:02:47.504Z,28.23
2023-04-01T07:07:45.436Z,28.95
2023-04-01T07:12:52.231Z,25.73
2023-04-01T07:18:25.404Z,26.55
2023-04-01T07:23:29.345Z,27.52
2023-04-01T07:28:37.003Z,19.85
2023-04-01T07:33:52.247Z,17.70
2023-04-01T07:38:48.172Z,16.90
2023-04-01T07:44:12.389Z,26.42
2023-04-01T07:49:12.881Z,22.45
2023-04-01T07:54:15.614Z,27.30
2023-04-01T07:59:31.452Z,18.80
2023-04-01T08:04:44.603Z,18.85
2023-04-01T08:10:12.838Z,22.00
2023-04-01T08:15:29.831Z,18.75
2023-04-01T08:20:36.261Z,18.42
2023-04-01T08:25:31.118Z,15.43
2023-04-01T08:30:49.633Z,17.70
2023-04-01T08:36:14.387Z,14.82
2023-04-01T08:41:11.270Z,12.63
2023-04-01T08:46:47.172Z,10.85
2023-04-01T08:52:17.903Z,17.40
2023-04-01T08:57:53.038Z,15.98
2023-04-01T09:03:14.191Z,12.40
2023-04-01T09:08:32.725Z,14.88
2023-04-01T09:13:48.926Z,13.68
2023-04-01T09:18:49.587Z,12.45
2023-04-01T09:23:54.589Z,9.98
2023-04-01T09:28:52.822Z,14.18
2023-04-01T09:34:08.169Z,10.95
2023-04-01T09:39:48.468Z,10.30
2023-04-01T09:45:02.911Z,9.40
2023-04-01T09:50:04.679Z,9.23
2023-04-01T09:55:54.739Z,7.95
2023-04-01T10:01:26.524Z,9.50
2023-04-01T10:06:30.608Z,9.73
2023-04-01T10:11:51.158Z,10.98
2023-04-01T10:16:52.737Z,5.95
2023-04-01T10:22:01.953Z,8.88
2023-04-01T10:27:18.346Z,6.93
2023-04-01T10:33:08.161Z,5.90
2023-04-01T10:38:29.918Z,5.82
2023-04-01T10:43:34.699Z,8.25
2023-04-01T10:48:55.715Z,6.13
2023-04-01T10:54:01.013Z,5.80
2023-04-01T10:59:55.723Z,8.88
2023-04-01T11:05:37.120Z,6.60
2023-04-01T11:10:53.563Z,6.75
2023-04-01T11:16:02.016Z,8.18
2023-04-01T11:21:26.915Z,7.65
2023-04-01T11:26:45.791Z,5.25
2023-04-01T11:32:16.004Z,9.15
2023-04-01T11:37:38.653Z,7.20
2023-04-01T11:43:33.514Z,6.82
2023-04-01T11:49:05.145Z,9.95
2023-04-01T11:54:35.019Z,3.67
2023-04-01T12:00:01.635Z,2.45
2023-04-01T12:05:35.850Z,5.25
2023-04-01T12:10:57.134Z,2.53
2023-04-01T12:16:06.415Z,7.13
2023-04-01T12:21:13.204Z,0.95
2023-04-01T12:26:36.901Z,1.13
2023-04-01T12:31:42.050Z,3.13
2023-04-01T12:36:47.926Z,5.40
2023-04-01T12:41:59.475Z,1.27
2023-04-01T12:47:02.916Z,0.82
2023-04-01T12:52:11.377Z,1.00
2023-04-01T12:57:30.389Z,0.70
2023-04-01T13:02:51.300Z,1.35
2023-04-01T13:07:54.666Z,2.78
2023-04-01T13:13:31.868Z,1.17
2023-04-01T13:19:11.641Z,0.30
2023-04-01T13:24:33.352Z,0.80
2023-04-01T13:29:35.098Z,0.45
2023-04-01T13:34:53.864Z,0.50
2023-04-01T13:40:17.038Z,0.68
2023-04-01T13:45:20.150Z,0.20
2023-04-01T13:50:47.974Z,0.52
2023-04-01T13:56:05.867Z,0.30
2023-04-01T14:06:11.930Z,0.68
2023-04-01T14:11:29.398Z,1.55
2023-04-01T14:16:55.102Z,0.25
2023-04-01T14:22:25.865Z,0.45
2023-04-01T14:27:26.320Z,10.13
2023-04-01T14:32:37.497Z,0.20
2023-04-01T14:38:12.623Z,2.03
2023-04-01T14:43:25.252Z,0.65
2023-04-01T14:48:55.461Z,2.85
2023-04-01T14:54:08.400Z,2.63
2023-04-01T14:59:16.998Z,1.95
2023-04-01T15:04:29.589Z,1.10
2023-04-01T15:09:40.578Z,2.88
2023-04-01T15:15:11.739Z,0.57
2023-04-01T15:20:22.027Z,1.00
2023-04-01T15:25:44.516Z,1.95
2023-04-01T15:31:01.611Z,3.03
2023-04-01T15:36:19.767Z,3.13
2023-04-01T15:41:45.191Z,0.90
2023-04-01T15:46:49.794Z,0.85
2023-04-01T15:51:55.080Z,1.15
2023-04-01T15:57:16.536Z,0.43
2023-04-01T16:02:22.229Z,0.43
2023-04-01T16:07:42.501Z,0.73
2023-04-01T16:12:53.611Z,0.55
2023-04-01T16:17:52.344Z,4.93
2023-04-01T16:22:54.241Z,0.75
2023-04-01T16:28:15.780Z,0.30
2023-04-01T16:33:25.007Z,1.55
2023-04-01T16:38:38.829Z,2.95
2023-04-01T16:43:37.821Z,1.42
2023-04-01T16:48:47.845Z,0.85
2023-04-01T16:53:52.057Z,1.42
2023-04-01T16:59:07.952Z,2.97
2023-04-01T17:04:28.432Z,4.03
2023-04-01T17:09:42.032Z,4.22
2023-04-01T17:14:37.297Z,1.20
2023-04-01T17:19:52.978Z,0.60
2023-04-01T17:25:09.874Z,2.35
2023-04-01T17:30:36.799Z,4.18
2023-04-01T17:35:34.495Z,6.10
2023-04-01T17:41:02.999Z,2.00
2023-04-01T17:45:56.988Z,9.05
2023-04-01T17:51:00.181Z,3.05
2023-04-01T17:56:06.710Z,1.83
2023-04-01T18:01:19.473Z,1.35
2023-04-01T18:06:21.818Z,2.20
2023-04-01T18:11:21.580Z,6.15
2023-04-01T18:16:48.528Z,2.28
2023-04-01T18:21:54.082Z,10.57
2023-04-01T18:27:13.172Z,1.63
2023-04-01T18:32:11.858Z,1.55
2023-04-01T18:37:20.872Z,5.55
2023-04-01T18:42:31.895Z,4.43
2023-04-01T18:47:39.582Z,4.10
2023-04-01T18:52:38.926Z,10.13
2023-04-01T18:57:55.259Z,9.50
2023-04-01T19:02:56.774Z,4.88
2023-04-01T19:07:52.623Z,7.07
2023-04-01T19:13:01.316Z,5.75
2023-04-01T19:18:14.493Z,5.43
2023-04-01T19:23:13.520Z,5.55
2023-04-01T19:28:23.860Z,2.17
2023-04-01T19:33:37.479Z,2.28
2023-04-01T19:39:10.830Z,4.07
2023-04-01T19:44:24.436Z,5.57
2023-04-01T19:49:26.356Z,2.58
2023-04-01T19:54:30.716Z,2.60
2023-04-01T19:59:43.982Z,6.13
2023-04-01T20:04:44.248Z,4.57
2023-04-01T20:09:40.331Z,3.78
2023-04-01T20:14:57.746Z,2.30
2023-04-01T20:20:04.786Z,9.43
2023-04-01T20:25:08.125Z,4.80
2023-04-01T20:30:38.299Z,8.35
2023-04-01T20:35:37.877Z,12.40
2023-04-01T20:40:38.238Z,4.93
2023-04-01T20:45:57.381Z,7.05
2023-04-01T20:51:17.327Z,14.47
2023-04-01T20:56:32.190Z,5.72
2023-04-01T21:01:53.382Z,8.77
2023-04-01T21:07:21.300Z,11.15
2023-04-01T21:12:21.732Z,6.72
2023-04-01T21:17:15.603Z,3.78
2023-04-01T21:22:30.850Z,3.15
2023-04-01T21:27:54.168Z,4.80
2023-04-01T21:32:46.986Z,2.65
2023-04-01T21:37:43.351Z,6.22
2023-04-01T21:42:38.851Z,3.97
2023-04-01T21:47:48.506Z,4.88
2023-04-01T21:52:53.859Z,4.10
2023-04-01T21:57:49.759Z,3.55
2023-04-01T22:03:04.312Z,3.07
2023-04-01T22:08:17.138Z,3.42
2023-04-01T22:13:21.719Z,7.65
2023-04-01T22:18:31.503Z,3.38
2023-04-01T22:28:40.345Z,3.67
2023-04-01T22:33:38.654Z,4.40
2023-04-01T22:38:59.760Z,10.05
2023-04-01T22:43:58.186Z,2.97
2023-04-01T22:48:55.253Z,4.40
2023-04-01T22:54:04.400Z,6.53
2023-04-01T22:59:37.731Z,4.60
2023-04-01T23:04:38.178Z,6.80
2023-04-01T23:09:33.750Z,6.57
2023-04-01T23:14:59.202Z,11.32
2023-04-01T23:20:29.955Z,3.38
2023-04-01T23:25:23.024Z,3.22
2023-04-01T23:30:50.799Z,3.60
2023-04-01T23:36:11.980Z,7.15
2023-04-01T23:41:06.656Z,3.70
2023-04-01T23:46:02.056Z,4.05
2023-04-01T23:50:56.320Z,6.35
2023-04-01T23:55:48.247Z,2.70
